createdAt,value
2017-08-19T00:00:17.151Z,90.00
2017-08-19T00:02:42.903Z,90.41
2017-08-19T00:05:08.683Z,91.30
2017-08-19T00:07:34.462Z,90.06
2017-08-19T00:10:00.299Z,90.17
2017-08-19T00:12:26.087Z,89.63
2017-08-19T00:14:51.833Z,90.24
2017-08-19T00:17:17.635Z,89.87
2017-08-19T00:19:43.392Z,90.37
2017-08-19T00:22:09.186Z,90.77
2017-08-19T00:24:34.967Z,90.46
2017-08-19T00:27:00.716Z,90.66
2017-08-19T00:29:26.518Z,90.80
2017-08-19T00:31:52.279Z,90.98
2017-08-19T00:34:18.071Z,90.44
2017-08-19T00:36:43.859Z,89.40
2017-08-19T00:39:09.642Z,89.47
2017-08-19T00:41:35.399Z,89.66
2017-08-19T00:44:01.288Z,88.79
2017-08-19T00:46:27.048Z,88.38
2017-08-19T00:48:52.818Z,88.73
2017-08-19T00:51:18.646Z,88.54
2017-08-19T00:53:44.455Z,88.71
2017-08-19T00:56:10.224Z,87.87
2017-08-19T00:58:36.041Z,86.92
2017-08-19T01:01:01.786Z,86.49
2017-08-19T01:03:27.556Z,86.70
2017-08-19T01:05:53.364Z,88.24
2017-08-19T01:08:19.155Z,88.75
2017-08-19T01:10:44.952Z,88.33
2017-08-19T01:13:10.703Z,89.67
2017-08-19T01:15:36.496Z,89.54
2017-08-19T01:18:02.294Z,87.75
2017-08-19T01:20:28.062Z,89.01
2017-08-19T01:22:53.869Z,89.22
2017-08-19T01:25:32.068Z,89.23
2017-08-19T01:27:57.851Z,90.28
2017-08-19T01:30:23.669Z,89.21
2017-08-19T01:32:49.454Z,89.21
2017-08-19T01:35:15.203Z,89.33
2017-08-19T01:37:41.012Z,89.27
2017-08-19T01:40:06.779Z,88.55
2017-08-19T01:42:32.551Z,87.96
2017-08-19T01:44:58.371Z,88.63
2017-08-19T01:47:24.187Z,88.55
2017-08-19T01:49:49.936Z,88.83
2017-08-19T01:52:15.735Z,89.38
2017-08-19T01:54:41.506Z,89.74
2017-08-19T01:57:07.313Z,89.05
2017-08-19T01:59:33.080Z,88.82
2017-08-19T02:01:58.844Z,89.29
2017-08-19T02:04:24.643Z,89.10
2017-08-19T02:06:50.404Z,89.47
2017-08-19T02:09:16.151Z,88.22
2017-08-19T02:11:41.948Z,88.79
2017-08-19T02:14:07.743Z,89.60
2017-08-19T02:16:33.507Z,89.45
2017-08-19T02:18:59.295Z,90.65
2017-08-19T02:21:25.047Z,91.14
2017-08-19T02:23:50.863Z,90.44
2017-08-19T02:26:16.638Z,91.32
2017-08-19T02:28:42.383Z,91.13
2017-08-19T02:31:08.146Z,91.31
2017-08-19T02:33:33.942Z,91.34
2017-08-19T02:35:59.698Z,91.35
2017-08-19T02:38:25.563Z,90.84
2017-08-19T02:40:51.358Z,91.77
2017-08-19T02:43:17.148Z,89.58
2017-08-19T02:45:42.951Z,88.65
2017-08-19T02:48:08.739Z,88.23
2017-08-19T02:50:34.508Z,87.91
2017-08-19T02:53:00.262Z,88.61
2017-08-19T02:55:26.047Z,88.42
2017-08-19T02:57:51.842Z,89.34
2017-08-19T03:00:17.649Z,88.53
2017-08-19T03:02:43.395Z,88.00
2017-08-19T03:05:09.159Z,88.26
2017-08-19T03:07:34.963Z,87.50
2017-08-19T03:10:00.960Z,87.48
2017-08-19T03:12:26.743Z,87.85
2017-08-19T03:14:52.527Z,87.64
2017-08-19T03:17:18.282Z,88.26
2017-08-19T03:19:44.055Z,88.40
2017-08-19T03:22:09.855Z,88.23
2017-08-19T03:24:35.619Z,88.11
2017-08-19T03:27:01.377Z,88.44
2017-08-19T03:29:27.215Z,89.48
2017-08-19T03:31:52.979Z,88.62
2017-08-19T03:34:18.759Z,87.77
2017-08-19T03:36:44.556Z,89.82
2017-08-19T03:39:10.307Z,90.09
2017-08-19T03:41:36.063Z,89.18
2017-08-19T03:44:01.855Z,89.86
2017-08-19T03:46:27.621Z,90.59
2017-08-19T03:48:53.406Z,90.82
2017-08-19T03:51:19.182Z,90.24
2017-08-19T03:53:44.941Z,91.40
2017-08-19T03:56:10.715Z,90.19
2017-08-19T03:58:36.496Z,90.14
2017-08-19T04:01:02.331Z,91.99
2017-08-19T04:03:28.215Z,92.58
2017-08-19T04:05:54.015Z,92.66
2017-08-19T04:08:19.801Z,92.04
2017-08-19T04:10:45.544Z,91.84
2017-08-19T04:13:11.363Z,91.68
2017-08-19T04:15:37.223Z,92.10
2017-08-19T04:18:03.021Z,92.43
2017-08-19T04:20:28.775Z,92.88
2017-08-19T04:22:54.569Z,92.57
2017-08-19T04:25:20.331Z,91.84
2017-08-19T04:27:46.099Z,91.06
2017-08-19T04:30:11.919Z,92.41
2017-08-19T04:32:37.676Z,92.40
2017-08-19T04:35:03.443Z,92.25
2017-08-19T04:37:29.231Z,92.79
2017-08-19T04:39:55.032Z,91.46
2017-08-19T04:42:20.862Z,91.63
2017-08-19T04:44:46.653Z,92.49
2017-08-19T04:47:12.415Z,91.92
2017-08-19T04:49:38.182Z,91.12
2017-08-19T04:52:04.776Z,90.65
2017-08-19T04:54:30.557Z,91.17
2017-08-19T04:56:56.355Z,92.46
2017-08-19T04:59:22.137Z,92.84
2017-08-19T05:01:47.907Z,94.38
2017-08-19T05:04:13.755Z,91.00
2017-08-19T05:06:39.567Z,89.76
2017-08-19T05:09:05.379Z,91.18
2017-08-19T05:11:31.207Z,90.36
2017-08-19T05:13:57.062Z,90.32
2017-08-19T05:16:22.867Z,89.59
2017-08-19T05:18:48.707Z,89.20
2017-08-19T05:21:14.504Z,89.38
2017-08-19T05:23:40.335Z,88.79
2017-08-19T05:26:06.105Z,89.71
2017-08-19T05:28:31.876Z,89.43
2017-08-19T05:30:57.635Z,89.39
2017-08-19T05:33:23.467Z,89.78
2017-08-19T05:35:49.243Z,89.70
2017-08-19T05:38:15.113Z,90.74
2017-08-19T05:40:40.942Z,90.28
2017-08-19T05:43:06.703Z,88.96
2017-08-19T05:45:32.499Z,89.47
2017-08-19T05:47:58.252Z,88.55
2017-08-19T05:50:24.009Z,87.67
2017-08-19T05:52:49.823Z,87.49
2017-08-19T05:55:15.586Z,85.85
2017-08-19T05:57:41.371Z,86.12
2017-08-19T06:00:07.995Z,83.97
2017-08-19T06:02:33.803Z,85.60
2017-08-19T06:04:59.583Z,84.66
2017-08-19T06:07:25.427Z,84.06
2017-08-19T06:09:51.238Z,85.65
2017-08-19T06:12:17.042Z,83.44
2017-08-19T06:14:42.900Z,84.16
2017-08-19T06:17:08.716Z,83.71
2017-08-19T06:19:34.491Z,84.53
2017-08-19T06:22:00.270Z,83.86
2017-08-19T06:24:26.093Z,84.99
2017-08-19T06:26:51.850Z,87.61
2017-08-19T06:29:17.654Z,82.13
2017-08-19T06:31:43.414Z,83.25
2017-08-19T06:34:09.513Z,83.38
2017-08-19T06:36:35.272Z,82.08
2017-08-19T06:39:01.040Z,83.52
2017-08-19T06:41:26.835Z,81.71
2017-08-19T06:43:52.628Z,82.07
2017-08-19T06:46:18.375Z,81.99
2017-08-19T06:48:44.137Z,81.63
2017-08-19T06:51:09.912Z,81.72
2017-08-19T06:53:35.681Z,80.87
2017-08-19T06:56:01.459Z,81.78
2017-08-19T06:58:27.299Z,82.56
2017-08-19T07:00:53.131Z,81.68
2017-08-19T07:03:18.899Z,80.49
2017-08-19T07:05:44.675Z,83.34
2017-08-19T07:08:10.459Z,81.10
2017-08-19T07:10:36.256Z,82.15
2017-08-19T07:13:02.079Z,83.56
2017-08-19T07:15:27.878Z,81.39
2017-08-19T07:17:53.652Z,79.44
2017-08-19T07:20:19.466Z,81.82
2017-08-19T07:22:45.212Z,79.07
2017-08-19T07:25:11.006Z,79.80
2017-08-19T07:27:36.800Z,78.86
2017-08-19T07:30:02.568Z,78.22
2017-08-19T07:32:28.330Z,78.02
2017-08-19T07:34:54.123Z,78.07
2017-08-19T07:37:19.871Z,75.65
2017-08-19T07:39:45.708Z,76.96
2017-08-19T07:42:19.564Z,76.03
2017-08-19T07:44:45.413Z,76.25
2017-08-19T07:47:11.186Z,75.35
2017-08-19T07:49:36.935Z,75.17
2017-08-19T07:52:02.734Z,73.59
2017-08-19T07:54:28.495Z,70.77
2017-08-19T07:56:54.247Z,66.40
2017-08-19T08:01:51.575Z,70.00
2017-08-19T08:04:17.320Z,70.61
2017-08-19T08:06:43.106Z,70.14
2017-08-19T08:09:08.921Z,69.64
2017-08-19T08:11:34.667Z,71.20
2017-08-19T08:14:00.440Z,72.19
2017-08-19T08:16:26.252Z,67.58
2017-08-19T08:18:52.080Z,65.70
2017-08-19T08:21:17.894Z,66.40
2017-08-19T08:23:43.651Z,65.61
2017-08-19T08:26:09.424Z,64.94
2017-08-19T08:28:35.335Z,65.22
2017-08-19T08:31:01.091Z,65.27
2017-08-19T08:33:26.856Z,65.75
2017-08-19T08:35:52.648Z,61.13
2017-08-19T08:38:18.442Z,60.64
2017-08-19T08:40:44.231Z,61.87
2017-08-19T08:43:10.020Z,62.38
2017-08-19T08:45:35.771Z,62.96
2017-08-19T08:48:01.577Z,56.93
2017-08-19T08:50:27.403Z,59.29
2017-08-19T08:52:53.196Z,56.58
2017-08-19T08:55:18.996Z,58.33
2017-08-19T08:57:44.754Z,58.32
2017-08-19T09:00:10.644Z,60.97
2017-08-19T09:02:36.439Z,61.73
2017-08-19T09:05:02.211Z,60.11
2017-08-19T09:07:27.971Z,64.17
2017-08-19T09:09:53.751Z,63.84
2017-08-19T09:12:19.551Z,64.39
2017-08-19T09:14:45.430Z,61.76
2017-08-19T09:17:11.199Z,60.77
2017-08-19T09:19:37.004Z,62.48
2017-08-19T09:22:02.775Z,63.41
2017-08-19T09:24:28.527Z,63.57
2017-08-19T09:26:54.299Z,67.40
2017-08-19T09:29:20.062Z,66.27
2017-08-19T09:31:45.862Z,64.25
2017-08-19T09:34:11.634Z,60.25
2017-08-19T09:36:37.418Z,59.00
2017-08-19T09:39:03.230Z,59.49
2017-08-19T09:41:28.991Z,57.03
2017-08-19T09:43:54.799Z,60.09
2017-08-19T09:46:20.539Z,55.60
2017-08-19T09:48:46.419Z,54.32
2017-08-19T09:51:12.245Z,54.12
2017-08-19T09:53:37.991Z,54.60
2017-08-19T09:56:03.746Z,53.88
2017-08-19T09:58:29.531Z,54.38
2017-08-19T10:00:55.336Z,55.52
2017-08-19T10:03:21.115Z,57.17
2017-08-19T10:05:46.883Z,58.59
2017-08-19T10:08:25.139Z,56.02
2017-08-19T10:11:03.101Z,52.49
2017-08-19T10:13:28.895Z,53.61
2017-08-19T10:15:54.657Z,52.88
2017-08-19T10:18:20.457Z,52.07
2017-08-19T10:20:46.210Z,50.62
2017-08-19T10:23:12.071Z,50.33
2017-08-19T10:25:37.852Z,52.39
2017-08-19T10:28:03.633Z,54.83
2017-08-19T10:30:29.420Z,56.73
2017-08-19T10:32:55.228Z,55.54
2017-08-19T10:35:21.000Z,56.71
2017-08-19T10:37:46.795Z,55.39
2017-08-19T10:40:12.558Z,54.39
2017-08-19T10:42:38.382Z,55.28
2017-08-19T10:45:04.149Z,52.55
2017-08-19T10:47:29.937Z,52.97
2017-08-19T10:49:55.883Z,52.77
2017-08-19T10:52:21.692Z,52.34
2017-08-19T10:54:47.453Z,50.67
2017-08-19T10:57:13.310Z,51.08
2017-08-19T10:59:39.064Z,50.88
2017-08-19T11:02:04.883Z,48.64
2017-08-19T11:04:30.659Z,48.32
2017-08-19T11:06:56.431Z,47.55
2017-08-19T11:09:22.218Z,48.12
2017-08-19T11:11:48.007Z,46.24
2017-08-19T11:14:13.778Z,45.62
2017-08-19T11:16:39.639Z,46.16
2017-08-19T11:19:05.396Z,43.09
2017-08-19T11:21:31.257Z,48.08
2017-08-19T11:23:57.052Z,48.77
2017-08-19T11:26:22.796Z,49.28
2017-08-19T11:28:48.658Z,47.29
2017-08-19T11:31:14.425Z,46.27
2017-08-19T11:33:40.169Z,44.19
2017-08-19T11:36:06.015Z,48.36
2017-08-19T11:38:31.843Z,46.82
2017-08-19T11:40:57.705Z,44.43
2017-08-19T11:43:23.503Z,43.77
2017-08-19T11:45:49.263Z,45.16
2017-08-19T11:48:15.125Z,46.15
2017-08-19T11:50:40.908Z,44.54
2017-08-19T11:53:06.803Z,42.32
2017-08-19T11:55:32.640Z,46.56
2017-08-19T11:57:58.402Z,45.66
2017-08-19T12:00:24.230Z,45.24
2017-08-19T12:02:50.091Z,49.15
2017-08-19T12:05:15.835Z,51.61
2017-08-19T12:07:41.720Z,51.41
2017-08-19T12:10:07.488Z,48.83
2017-08-19T12:12:33.235Z,45.33
2017-08-19T12:14:59.039Z,44.30
2017-08-19T12:17:24.807Z,44.11
2017-08-19T12:19:50.575Z,44.86
2017-08-19T12:22:16.368Z,43.18
2017-08-19T12:24:42.167Z,42.00
2017-08-19T12:27:07.935Z,44.04
2017-08-19T12:29:33.715Z,45.83
2017-08-19T12:31:59.515Z,45.62
2017-08-19T12:34:25.289Z,41.31
2017-08-19T12:36:51.078Z,42.82
2017-08-19T12:39:16.871Z,43.59
2017-08-19T12:41:42.661Z,43.02
2017-08-19T12:44:08.496Z,43.92
2017-08-19T12:46:34.235Z,45.24
2017-08-19T12:48:59.995Z,43.30
2017-08-19T12:51:25.776Z,42.01
2017-08-19T12:53:51.574Z,40.05
2017-08-19T12:56:17.517Z,39.21
2017-08-19T12:58:43.319Z,39.99
2017-08-19T13:01:09.127Z,39.66
2017-08-19T13:03:34.892Z,38.51
2017-08-19T13:06:00.670Z,38.27
2017-08-19T13:08:26.455Z,40.63
2017-08-19T13:10:52.229Z,40.76
2017-08-19T13:13:18.015Z,38.79
2017-08-19T13:15:43.807Z,41.06
2017-08-19T13:18:09.563Z,42.88
2017-08-19T13:20:35.356Z,43.37
2017-08-19T13:23:01.183Z,43.51
2017-08-19T13:25:26.975Z,43.57
2017-08-19T13:27:52.737Z,43.61
2017-08-19T13:30:18.521Z,48.19
2017-08-19T13:32:44.384Z,49.68
2017-08-19T13:35:10.168Z,49.13
2017-08-19T13:37:35.943Z,49.10
2017-08-19T13:40:01.759Z,49.18
2017-08-19T13:42:27.516Z,46.93
2017-08-19T13:44:53.283Z,48.62
2017-08-19T13:47:19.103Z,49.95
2017-08-19T13:49:44.871Z,49.84
2017-08-19T13:52:10.672Z,48.85
2017-08-19T13:54:37.306Z,48.74
2017-08-19T13:57:03.139Z,49.56
2017-08-19T13:59:29.021Z,48.41
2017-08-19T14:01:54.848Z,48.83
2017-08-19T14:04:20.635Z,47.56
2017-08-19T14:06:46.402Z,49.32
2017-08-19T14:09:12.174Z,48.81
2017-08-19T14:11:37.963Z,47.50
2017-08-19T14:14:03.724Z,46.42
2017-08-19T14:16:29.523Z,47.55
2017-08-19T14:18:55.279Z,45.48
2017-08-19T14:21:21.084Z,45.93
2017-08-19T14:23:46.879Z,46.11
2017-08-19T14:26:12.731Z,45.23
2017-08-19T14:28:38.525Z,46.07
2017-08-19T14:31:04.280Z,44.81
2017-08-19T14:33:30.078Z,47.09
2017-08-19T14:35:55.931Z,44.61
2017-08-19T14:38:21.691Z,44.51
2017-08-19T14:40:47.472Z,41.81
2017-08-19T14:43:13.227Z,41.13
2017-08-19T14:45:39.019Z,44.09
2017-08-19T14:48:04.779Z,40.72
2017-08-19T14:50:30.535Z,40.93
2017-08-19T14:52:57.280Z,39.04
2017-08-19T14:55:23.035Z,39.67
2017-08-19T14:57:48.803Z,38.35
2017-08-19T15:00:14.576Z,39.28
2017-08-19T15:02:40.413Z,42.41
2017-08-19T15:05:06.222Z,38.43
2017-08-19T15:07:32.043Z,36.73
2017-08-19T15:09:57.780Z,36.49
2017-08-19T15:12:23.552Z,41.46
2017-08-19T15:14:49.364Z,42.09
2017-08-19T15:17:15.163Z,39.28
2017-08-19T15:19:40.910Z,44.70
2017-08-19T15:22:06.681Z,45.13
2017-08-19T15:24:32.527Z,46.85
2017-08-19T15:26:58.327Z,44.98
2017-08-19T15:29:24.103Z,46.46
2017-08-19T15:31:49.855Z,46.70
2017-08-19T15:34:15.653Z,48.00
2017-08-19T15:36:41.419Z,47.28
2017-08-19T15:39:07.274Z,47.15
2017-08-19T15:41:33.077Z,46.26
2017-08-19T15:43:58.855Z,44.08
2017-08-19T15:46:24.624Z,45.05
2017-08-19T15:48:50.395Z,43.41
2017-08-19T15:51:16.203Z,40.73
2017-08-19T15:53:42.016Z,42.02
2017-08-19T15:56:07.851Z,44.08
2017-08-19T15:58:33.607Z,42.82
2017-08-19T16:00:59.378Z,42.59
2017-08-19T16:03:25.132Z,41.94
2017-08-19T16:05:50.918Z,41.17
2017-08-19T16:08:16.682Z,39.59
2017-08-19T16:10:42.435Z,40.70
2017-08-19T16:13:08.218Z,40.24
2017-08-19T16:15:33.976Z,40.66
2017-08-19T16:17:59.737Z,42.66
2017-08-19T16:20:25.559Z,44.24
2017-08-19T16:22:51.307Z,42.72
2017-08-19T16:25:17.068Z,40.37
2017-08-19T16:27:42.891Z,40.14
2017-08-19T16:30:08.645Z,40.45
2017-08-19T16:32:34.479Z,40.00
2017-08-19T16:35:00.228Z,40.89
2017-08-19T16:37:26.059Z,40.78
2017-08-19T16:39:51.945Z,40.52
2017-08-19T16:42:17.727Z,41.10
2017-08-19T16:44:43.555Z,39.97
2017-08-19T16:47:09.351Z,40.86
2017-08-19T16:49:35.194Z,39.51
2017-08-19T16:52:00.971Z,39.43
2017-08-19T16:54:26.758Z,40.42
2017-08-19T16:56:52.512Z,41.68
2017-08-19T16:59:18.275Z,42.17
2017-08-19T17:01:44.047Z,42.99
2017-08-19T17:04:09.831Z,43.14
2017-08-19T17:06:35.591Z,43.78
2017-08-19T17:09:01.375Z,45.13
2017-08-19T17:11:27.179Z,44.51
2017-08-19T17:13:52.981Z,45.56
2017-08-19T17:16:18.767Z,45.24
2017-08-19T17:18:44.528Z,45.11
2017-08-19T17:21:10.299Z,48.61
2017-08-19T17:23:36.080Z,48.93
2017-08-19T17:26:01.866Z,47.31
2017-08-19T17:28:27.611Z,47.96
2017-08-19T17:30:53.390Z,48.10
2017-08-19T17:33:19.159Z,48.32
2017-08-19T17:35:44.935Z,49.11
2017-08-19T17:38:10.735Z,48.02
2017-08-19T17:40:36.479Z,48.79
2017-08-19T17:43:02.235Z,49.16
2017-08-19T17:45:28.035Z,51.08
2017-08-19T17:47:53.859Z,50.61
2017-08-19T17:50:19.652Z,50.98
2017-08-19T17:52:45.399Z,52.16
2017-08-19T17:55:11.156Z,52.04
2017-08-19T17:57:36.937Z,53.41
2017-08-19T18:00:02.739Z,53.25
2017-08-19T18:02:28.474Z,54.74
2017-08-19T18:04:54.242Z,56.53
2017-08-19T18:07:20.015Z,54.68
2017-08-19T18:09:45.820Z,53.79
2017-08-19T18:12:11.574Z,56.07
2017-08-19T18:14:37.336Z,54.82
2017-08-19T18:17:03.131Z,54.92
2017-08-19T18:19:30.014Z,54.49
2017-08-19T18:21:55.808Z,55.89
2017-08-19T18:24:21.627Z,57.05
2017-08-19T18:26:47.387Z,56.96
2017-08-19T18:29:13.151Z,57.26
2017-08-19T18:31:38.964Z,57.73
2017-08-19T18:34:05.311Z,58.35
2017-08-19T18:36:31.052Z,57.32
2017-08-19T18:38:56.841Z,56.95
2017-08-19T18:41:22.604Z,57.45
2017-08-19T18:43:48.354Z,58.60
2017-08-19T18:46:14.195Z,58.83
2017-08-19T18:48:40.011Z,61.43
2017-08-19T18:51:05.786Z,61.15
2017-08-19T18:53:31.547Z,63.34
2017-08-19T18:55:57.339Z,62.91
2017-08-19T18:58:23.087Z,64.21
2017-08-19T19:00:48.927Z,65.05
2017-08-19T19:03:14.766Z,66.32
2017-08-19T19:08:19.567Z,66.18
2017-08-19T19:10:45.358Z,66.14
2017-08-19T19:13:11.111Z,67.16
2017-08-19T19:15:36.983Z,67.11
2017-08-19T19:18:02.784Z,67.81
2017-08-19T19:20:28.572Z,67.26
2017-08-19T19:22:54.319Z,68.77
2017-08-19T19:25:20.203Z,68.78
2017-08-19T19:27:45.959Z,68.53
2017-08-19T19:30:11.711Z,68.13
2017-08-19T19:32:37.492Z,69.33
2017-08-19T19:35:03.291Z,69.88
2017-08-19T19:37:29.039Z,69.51
2017-08-19T19:39:54.911Z,70.04
2017-08-19T19:42:20.755Z,70.53
2017-08-19T19:44:46.538Z,70.05
2017-08-19T19:47:12.291Z,70.13
2017-08-19T19:49:38.064Z,70.15
2017-08-19T19:52:03.847Z,70.58
2017-08-19T19:54:29.634Z,71.06
2017-08-19T19:56:55.451Z,71.94
2017-08-19T19:59:21.331Z,71.89
2017-08-19T20:01:47.095Z,70.99
2017-08-19T20:04:12.879Z,71.75
2017-08-19T20:06:38.624Z,71.29
2017-08-19T20:09:04.415Z,71.37
2017-08-19T20:13:55.943Z,70.99
2017-08-19T20:16:21.730Z,71.22
2017-08-19T20:18:47.490Z,72.63
2017-08-19T20:21:13.291Z,72.77
2017-08-19T20:23:39.043Z,73.35
2017-08-19T20:26:04.825Z,71.64
2017-08-19T20:28:30.567Z,72.27
2017-08-19T20:30:56.384Z,72.12
2017-08-19T20:33:22.175Z,72.30
2017-08-19T20:35:47.921Z,71.18
2017-08-19T20:38:13.699Z,70.44
2017-08-19T20:40:39.547Z,71.01
2017-08-19T20:43:05.327Z,72.82
2017-08-19T20:45:31.090Z,73.02
2017-08-19T20:47:56.862Z,72.40
2017-08-19T20:50:22.615Z,73.01
2017-08-19T20:52:48.422Z,73.35
2017-08-19T20:55:14.171Z,71.17
2017-08-19T20:57:39.972Z,72.39
2017-08-19T21:00:05.727Z,72.99
2017-08-19T21:02:31.496Z,72.86
2017-08-19T21:04:57.288Z,72.82
2017-08-19T21:07:23.051Z,72.52
2017-08-19T21:09:49.109Z,72.17
2017-08-19T21:12:14.951Z,73.47
2017-08-19T21:14:40.707Z,72.62
2017-08-19T21:17:06.516Z,72.14
2017-08-19T21:19:32.262Z,72.89
2017-08-19T21:21:58.032Z,72.92
2017-08-19T21:24:23.820Z,72.54
2017-08-19T21:26:49.671Z,73.22
2017-08-19T21:29:15.504Z,73.37
2017-08-19T21:31:41.303Z,73.49
2017-08-19T21:34:07.067Z,72.87
2017-08-19T21:36:32.854Z,74.84
2017-08-19T21:38:58.623Z,75.27
2017-08-19T21:41:24.428Z,75.84
2017-08-19T21:43:50.207Z,75.21
2017-08-19T21:46:15.951Z,75.99
2017-08-19T21:48:41.779Z,76.86
2017-08-19T21:51:07.579Z,77.37
2017-08-19T21:53:33.439Z,77.38
2017-08-19T21:55:59.203Z,76.71
2017-08-19T21:58:25.029Z,77.05
2017-08-19T22:00:50.824Z,77.69
2017-08-19T22:03:16.631Z,77.29
2017-08-19T22:05:42.461Z,77.95
2017-08-19T22:08:08.231Z,78.20
2017-08-19T22:10:33.999Z,78.53
2017-08-19T22:12:59.793Z,78.51
2017-08-19T22:15:25.576Z,78.23
2017-08-19T22:17:51.323Z,78.23
2017-08-19T22:20:17.116Z,78.28
2017-08-19T22:22:42.916Z,78.05
2017-08-19T22:25:08.679Z,78.73
2017-08-19T22:27:34.531Z,78.06
2017-08-19T22:30:00.298Z,77.62
2017-08-19T22:32:26.107Z,78.56
2017-08-19T22:34:51.915Z,79.72
2017-08-19T22:37:17.691Z,79.47
2017-08-19T22:39:43.475Z,78.85
2017-08-19T22:42:09.228Z,78.90
2017-08-19T22:44:34.982Z,78.48
2017-08-19T22:47:00.757Z,78.31
2017-08-19T22:49:26.640Z,78.91
2017-08-19T22:51:52.415Z,79.27
2017-08-19T22:54:18.287Z,78.84
2017-08-19T22:56:44.055Z,78.50
2017-08-19T22:59:09.813Z,78.81
2017-08-19T23:01:35.651Z,79.21
2017-08-19T23:04:01.433Z,78.76
2017-08-19T23:06:27.223Z,79.61
2017-08-19T23:08:52.999Z,79.59
2017-08-19T23:11:18.747Z,78.80
2017-08-19T23:13:44.527Z,78.89
2017-08-19T23:16:10.287Z,78.99
2017-08-19T23:18:36.122Z,79.48
2017-08-19T23:21:01.881Z,79.33
2017-08-19T23:23:27.758Z,79.25
2017-08-19T23:25:53.535Z,79.56
2017-08-19T23:28:19.292Z,79.98
2017-08-19T23:30:45.088Z,80.14
2017-08-19T23:33:10.858Z,79.71
2017-08-19T23:35:36.622Z,79.27
2017-08-19T23:38:02.416Z,78.84
2017-08-19T23:40:28.179Z,77.44
2017-08-19T23:42:53.947Z,79.27
2017-08-19T23:45:19.736Z,79.04
2017-08-19T23:47:45.488Z,77.18
2017-08-19T23:50:11.308Z,77.77
2017-08-19T23:52:37.101Z,78.89
2017-08-19T23:55:02.903Z,78.07
2017-08-19T23:57:28.649Z,79.35
2017-08-19T23:59:54.423Z,78.63
